TimeEST,TemperatureF,Dew PointF,Humidity,Sea Level PressureIn,VisibilityMPH,Wind Direction,Wind SpeedMPH,Gust SpeedMPH,PrecipitationIn,Events,Conditions,WindDirDegrees,DateUTC
12:55 AM,46.6,42.8,87,30.38,10.0,Calm,Calm,-,N/A,,Overcast,0,2013-01-09 05:55:00
1:55 AM,42.3,40.6,94,30.37,10.0,Calm,Calm,-,N/A,,Clear,0,2013-01-09 06:55:00
2:55 AM,39.7,39.0,97,30.39,10.0,Calm,Calm,-,N/A,,Clear,0,2013-01-09 07:55:00
3:55 AM,40.6,39.2,95,30.40,10.0,Calm,Calm,-,N/A,,Clear,0,2013-01-09 08:55:00
4:55 AM,39.2,38.1,96,30.39,10.0,Calm,Calm,-,N/A,,Clear,0,2013-01-09 09:55:00
5:55 AM,38.5,37.0,95,30.40,10.0,Calm,Calm,-,N/A,,Clear,0,2013-01-09 10:55:00
6:55 AM,36.9,35.8,96,30.41,10.0,Calm,Calm,-,N/A,,Clear,0,2013-01-09 11:55:00
7:55 AM,37.2,36.0,95,30.43,10.0,Calm,Calm,-,N/A,,Scattered Clouds,0,2013-01-09 12:55:00
8:55 AM,41.0,39.2,93,30.44,10.0,Calm,Calm,-,N/A,,Mostly Cloudy,0,2013-01-09 13:55:00
9:55 AM,49.1,42.6,78,30.44,10.0,Calm,Calm,-,N/A,,Clear,0,2013-01-09 14:55:00
10:55 AM,59.2,46.6,63,30.44,10.0,Variable,3.5,-,N/A,,Clear,0,2013-01-09 15:55:00
11:55 AM,65.3,50.5,59,30.42,10.0,North,5.8,-,N/A,,Clear,360,2013-01-09 16:55:00
12:55 PM,68.2,50.9,54,30.40,10.0,Calm,Calm,-,N/A,,Clear,0,2013-01-09 17:55:00
1:55 PM,70.2,49.5,48,30.37,10.0,Variable,3.5,-,N/A,,Clear,0,2013-01-09 18:55:00
2:55 PM,69.8,49.1,48,30.37,10.0,Calm,Calm,-,N/A,,Clear,0,2013-01-09 19:55:00
3:55 PM,68.5,50.4,52,30.37,10.0,SW,3.5,-,N/A,,Partly Cloudy,220,2013-01-09 20:55:00
4:55 PM,66.6,50.5,56,30.37,10.0,South,3.5,-,N/A,,Clear,170,2013-01-09 21:55:00
5:55 PM,62.1,50.7,66,30.38,10.0,Calm,Calm,-,N/A,,Scattered Clouds,0,2013-01-09 22:55:00
6:55 PM,57.4,50.7,78,30.39,10.0,WSW,3.5,-,N/A,,Clear,240,2013-01-09 23:55:00
7:55 PM,55.2,50.5,84,30.38,10.0,Calm,Calm,-,N/A,,Mostly Cloudy,0,2013-01-10 00:55:00
8:55 PM,51.4,48.9,91,30.40,10.0,Calm,Calm,-,N/A,,Clear,0,2013-01-10 01:55:00
9:55 PM,52.9,49.6,89,30.41,10.0,Calm,Calm,-,N/A,,Scattered Clouds,0,2013-01-10 02:55:00
10:55 PM,51.6,49.3,92,30.41,10.0,Calm,Calm,-,N/A,,Overcast,0,2013-01-10 03:55:00
11:55 PM,50.7,48.6,92,30.44,10.0,Calm,Calm,-,N/A,,Mostly Cloudy,0,2013-01-10 04:55:00